Time;durP1;ratioP1;P1;durP2;ratioP2;P2;SDS_P1;SDS_P2;PMS_P1;PMS_P2;Temp;Humidity;BMP_temperature;BMP_pressure;BME280_temperature;BME280_humidity;BME280_pressure;Samples;Min_cycle;Max_cycle;Signal;HPM_P1;HPM_P2
2022/03/23 00:00:02;;;;;;;;;;;;;;;;;;4980701;28;20746;-61
2022/03/23 00:02:27;;;;;;;;;;;;;;;;;;4979353;28;19918;-61
2022/03/23 00:04:53;;;;;;;;;;;;;;;;;;4983567;28;19918;-61
2022/03/23 00:07:20;;;;;;;;;;;;;;;;;;4983966;28;19925;-61
2022/03/23 00:09:46;;;;;;;;;;;;;;;;;;4983818;28;19925;-61
2022/03/23 00:12:12;;;;;;;;;;;;;;;;;;4984084;28;19924;-61
2022/03/23 00:14:39;;;;;;;;;;;;;;;;;;4996920;28;19917;-61
2022/03/23 00:17:05;;;;;;;;;;;;;;;;;;4995487;28;19967;-61
2022/03/23 00:19:30;;;;;;;;;;;;;;;;;;4981988;28;20399;-61
2022/03/23 00:21:58;;;;;;;;;;;;;;;;;;4980410;28;20468;-61
2022/03/23 00:24:24;;;;;;;;;;;;;;;;;;4982826;28;19988;-60
2022/03/23 00:26:49;;;;;;;;;;;;;;;;;;4980501;28;19917;-61
2022/03/23 00:29:14;;;;;;;;;;;;;;;;;;4980820;28;21686;-61
2022/03/23 00:31:40;;;;;;;;;;;;;;;;;;4982728;28;20460;-60
2022/03/23 00:34:08;;;;;;;;;;;;;;;;;;4982012;28;19928;-60
2022/03/23 00:36:34;;;;;;;;;;;;;;;;;;4981448;28;19917;-60
2022/03/23 00:39:02;;;;;;;;;;;;;;;;;;4981387;28;19972;-61
2022/03/23 00:41:27;;;;;;;;;;;;;;;;;;4983328;28;19920;-61
2022/03/23 00:43:52;;;;;;;;;;;;;;;;;;4996835;28;19937;-61
2022/03/23 00:46:19;;;;;;;;;;;;;;;;;;4978176;28;19936;-61
2022/03/23 00:48:44;;;;;;;;;;;;;;;;;;4980490;28;19929;-61
2022/03/23 00:51:10;;;;;;;;;;;;;;;;;;4979667;28;19928;-61
2022/03/23 00:53:41;;;;;;;;;;;;;;;;;;4981132;28;19940;-61
2022/03/23 00:56:07;;;;;;;;;;;;;;;;;;4983136;28;21470;-61
2022/03/23 00:58:32;;;;;;;;;;;;;;;;;;4980379;28;19913;-62
2022/03/23 01:00:57;;;;;;;;;;;;;;;;;;4996643;28;19964;-61
2022/03/23 01:03:22;;;;;;;;;;;;;;;;;;4959716;28;20412;-61
2022/03/23 01:05:50;;;;;;;;;;;;;;;;;;4982474;28;19928;-61
2022/03/23 01:08:20;;;;;;;;;;;;;;;;;;4980498;28;19920;-61
2022/03/23 01:10:48;;;;;;;;;;;;;;;;;;4982145;28;19913;-61
2022/03/23 01:13:18;;;;;;;;;;;;;;;;;;4977647;28;20284;-61
2022/03/23 01:15:44;;;;;;;;;;;;;;;;;;4995516;28;19918;-61
2022/03/23 01:18:09;;;;;;;;;;;;;;;;;;4981305;28;20436;-61
2022/03/23 01:20:36;;;;;;;;;;;;;;;;;;4986326;28;19921;-61
2022/03/23 01:23:01;;;;;;;;;;;;;;;;;;4984790;28;19922;-61
2022/03/23 01:25:26;;;;;;;;;;;;;;;;;;4966475;28;19918;-61
2022/03/23 01:27:52;;;;;;;;;;;;;;;;;;4985218;28;19913;-61
2022/03/23 01:30:17;;;;;;;;;;;;;;;;;;4984293;28;19925;-61
2022/03/23 01:32:43;;;;;;;;;;;;;;;;;;4942537;28;1129409;-61
2022/03/23 01:35:08;;;;;;;;;;;;;;;;;;4986860;28;19918;-61
2022/03/23 01:37:34;;;;;;;;;;;;;;;;;;4984535;28;19984;-61
2022/03/23 01:39:59;;;;;;;;;;;;;;;;;;4986663;28;20487;-59
2022/03/23 01:42:25;;;;;;;;;;;;;;;;;;4982200;28;19944;-61
2022/03/23 01:44:50;;;;;;;;;;;;;;;;;;4977284;28;20661;-61
2022/03/23 01:47:15;;;;;;;;;;;;;;;;;;4982934;28;20829;-61
2022/03/23 01:49:41;;;;;;;;;;;;;;;;;;4967797;28;19999;-60
2022/03/23 01:52:06;;;;;;;;;;;;;;;;;;4966352;28;19945;-61
2022/03/23 01:54:31;;;;;;;;;;;;;;;;;;4982343;28;20028;-61
2022/03/23 01:56:56;;;;;;;;;;;;;;;;;;4967618;28;21664;-60
2022/03/23 01:59:24;;;;;;;;;;;;;;;;;;4983397;28;19918;-60
2022/03/23 02:01:52;;;;;;;;;;;;;;;;;;4984066;28;20545;-60
2022/03/23 02:04:19;;;;;;;;;;;;;;;;;;4983488;28;19918;-60
2022/03/23 02:06:44;;;;;;;;;;;;;;;;;;4984869;28;19975;-61
2022/03/23 02:09:10;;;;;;;;;;;;;;;;;;4966946;28;19917;-61
2022/03/23 02:11:36;;;;;;;;;;;;;;;;;;4984323;28;20158;-61
2022/03/23 02:14:02;;;;;;;;;;;;;;;;;;4985131;28;20369;-61
2022/03/23 02:16:27;;;;;;;;;;;;;;;;;;4985669;28;19917;-61
2022/03/23 02:18:56;;;;;;;;;;;;;;;;;;4983531;28;20109;-61
2022/03/23 02:21:23;;;;;;;;;;;;;;;;;;4982887;28;19928;-61
2022/03/23 02:23:54;;;;;;;;;;;;;;;;;;4984505;28;19921;-61
2022/03/23 02:26:19;;;;;;;;;;;;;;;;;;4983929;28;19928;-64
2022/03/23 02:28:45;;;;;;;;;;;;;;;;;;4983210;28;20090;-61
2022/03/23 02:31:10;;;;;;;;;;;;;;;;;;4981896;28;19925;-61
2022/03/23 02:33:38;;;;;;;;;;;;;;;;;;4981880;28;19927;-61
2022/03/23 02:36:03;;;;;;;;;;;;;;;;;;4983095;28;19921;-61
2022/03/23 02:38:31;;;;;;;;;;;;;;;;;;4998316;28;20036;-62
2022/03/23 02:40:56;;;;;;;;;;;;;;;;;;4985396;28;19939;-61
2022/03/23 02:43:21;;;;;;;;;;;;;;;;;;4981246;28;19921;-61
2022/03/23 02:45:47;;;;;;;;;;;;;;;;;;4984972;28;20018;-61
2022/03/23 02:48:12;;;;;;;;;;;;;;;;;;4985085;28;19913;-62
2022/03/23 02:50:37;;;;;;;;;;;;;;;;;;4981367;28;19944;-61
2022/03/23 03:02:05;;;;;;;;;;;;;;;;;;4986287;28;19913;-59
2022/03/23 03:04:05;;;;;;;;;;;;;;;;;;4981152;28;21754;-61
2022/03/23 03:06:31;;;;;;;;;;;;;;;;;;4984211;28;19928;-60
2022/03/23 03:08:56;;;;;;;;;;;;;;;;;;4983809;28;19924;-60
2022/03/23 03:11:23;;;;;;;;;;;;;;;;;;4984437;28;20406;-60
2022/03/23 03:13:51;;;;;;;;;;;;;;;;;;4985236;28;20265;-60
2022/03/23 03:16:16;;;;;;;;;;;;;;;;;;4967729;28;20048;-60
2022/03/23 03:18:42;;;;;;;;;;;;;;;;;;4984438;28;19921;-61
2022/03/23 03:21:10;;;;;;;;;;;;;;;;;;4983147;28;19917;-61
2022/03/23 03:23:35;;;;;;;;;;;;;;;;;;4985587;28;19923;-60
2022/03/23 03:26:06;;;;;;;;;;;;;;;;;;4982049;28;19921;-60
2022/03/23 03:28:32;;;;;;;;;;;;;;;;;;4984759;28;19929;-60
2022/03/23 03:31:00;;;;;;;;;;;;;;;;;;4982731;28;20889;-59
2022/03/23 03:33:25;;;;;;;;;;;;;;;;;;4964789;28;20576;-60
2022/03/23 03:35:55;;;;;;;;;;;;;;;;;;4986086;28;20202;-60
2022/03/23 03:38:23;;;;;;;;;;;;;;;;;;4983156;28;20013;-61
2022/03/23 03:40:49;;;;;;;;;;;;;;;;;;4980149;28;19925;-60
2022/03/23 03:43:16;;;;;;;;;;;;;;;;;;4978388;28;19913;-61
2022/03/23 03:45:45;;;;;;;;;;;;;;;;;;4981483;28;20289;-60
2022/03/23 03:48:10;;;;;;;;;;;;;;;;;;4984005;28;19921;-61
2022/03/23 03:50:35;;;;;;;;;;;;;;;;;;4983834;28;20401;-61
2022/03/23 03:53:04;;;;;;;;;;;;;;;;;;4982923;28;20371;-61
2022/03/23 03:55:34;;;;;;;;;;;;;;;;;;4966740;28;19917;-60
2022/03/23 03:58:00;;;;;;;;;;;;;;;;;;4982287;28;19937;-60
2022/03/23 04:00:28;;;;;;;;;;;;;;;;;;4982148;28;20487;-60
2022/03/23 04:02:53;;;;;;;;;;;;;;;;;;4979526;28;20016;-60
2022/03/23 04:05:18;;;;;;;;;;;;;;;;;;4983169;28;19913;-60
2022/03/23 04:07:44;;;;;;;;;;;;;;;;;;4981028;28;19917;-60
2022/03/23 04:10:12;;;;;;;;;;;;;;;;;;4983591;28;19995;-61
2022/03/23 04:12:40;;;;;;;;;;;;;;;;;;4982205;28;21091;-63
2022/03/23 04:15:05;;;;;;;;;;;;;;;;;;4980168;28;19927;-61
2022/03/23 04:17:33;;;;;;;;;;;;;;;;;;4965991;28;19917;-61
2022/03/23 04:20:00;;;;;;;;;;;;;;;;;;4978595;28;19918;-61
2022/03/23 04:22:26;;;;;;;;;;;;;;;;;;4981080;28;20372;-61
2022/03/23 04:24:51;;;;;;;;;;;;;;;;;;4983261;28;19913;-61
2022/03/23 04:27:17;;;;;;;;;;;;;;;;;;4980785;28;19932;-61
2022/03/23 04:29:42;;;;;;;;;;;;;;;;;;4979525;28;19920;-61
2022/03/23 04:32:10;;;;;;;;;;;;;;;;;;4981857;28;19971;-61
2022/03/23 04:34:36;;;;;;;;;;;;;;;;;;4982168;28;20651;-61
2022/03/23 04:37:04;;;;;;;;;;;;;;;;;;4982190;28;19991;-61
2022/03/23 04:39:31;;;;;;;;;;;;;;;;;;4965604;28;19991;-61
2022/03/23 04:41:58;;;;;;;;;;;;;;;;;;4982334;28;20426;-61
2022/03/23 04:44:25;;;;;;;;;;;;;;;;;;4963520;28;19921;-62
2022/03/23 04:46:53;;;;;;;;;;;;;;;;;;4983369;28;19929;-61
2022/03/23 04:49:18;;;;;;;;;;;;;;;;;;4981464;28;20542;-60
2022/03/23 04:51:44;;;;;;;;;;;;;;;;;;4981480;28;19924;-60
2022/03/23 04:54:09;;;;;;;;;;;;;;;;;;4980987;28;20036;-62
2022/03/23 04:56:37;;;;;;;;;;;;;;;;;;4981003;28;20724;-60
2022/03/23 04:59:02;;;;;;;;;;;;;;;;;;4962915;28;19975;-60
2022/03/23 05:01:33;;;;;;;;;;;;;;;;;;4998598;28;19917;-60
2022/03/23 05:03:59;;;;;;;;;;;;;;;;;;4962438;28;19924;-60
2022/03/23 05:06:27;;;;;;;;;;;;;;;;;;4984015;28;21872;-60
2022/03/23 05:08:54;;;;;;;;;;;;;;;;;;4981733;28;19996;-61
2022/03/23 05:11:23;;;;;;;;;;;;;;;;;;4981744;28;19983;-61
2022/03/23 05:13:49;;;;;;;;;;;;;;;;;;4984865;28;20069;-61
2022/03/23 05:16:18;;;;;;;;;;;;;;;;;;4981992;28;20085;-61
2022/03/23 05:18:44;;;;;;;;;;;;;;;;;;4982425;28;20377;-60
2022/03/23 05:21:11;;;;;;;;;;;;;;;;;;4981900;28;19913;-61
2022/03/23 05:23:37;;;;;;;;;;;;;;;;;;4982040;28;19960;-60
2022/03/23 05:26:02;;;;;;;;;;;;;;;;;;4978604;28;20016;-61
2022/03/23 05:28:28;;;;;;;;;;;;;;;;;;4976923;28;20809;-61
2022/03/23 05:30:56;;;;;;;;;;;;;;;;;;4981724;28;20913;-61
2022/03/23 05:33:26;;;;;;;;;;;;;;;;;;4980972;28;19980;-61
2022/03/23 05:35:51;;;;;;;;;;;;;;;;;;4981631;28;20380;-61
2022/03/23 05:38:16;;;;;;;;;;;;;;;;;;4978863;28;19921;-61
2022/03/23 05:40:42;;;;;;;;;;;;;;;;;;4982140;28;19955;-61
2022/03/23 05:43:07;;;;;;;;;;;;;;;;;;4979107;28;19928;-61
2022/03/23 05:45:35;;;;;;;;;;;;;;;;;;4981238;28;19917;-61
2022/03/23 05:48:00;;;;;;;;;;;;;;;;;;4967805;28;19999;-61
2022/03/23 05:50:26;;;;;;;;;;;;;;;;;;4983593;28;19921;-61
2022/03/23 05:52:51;;;;;;;;;;;;;;;;;;4978579;28;19914;-61
2022/03/23 05:55:20;;;;;;;;;;;;;;;;;;4981998;28;19917;-61
2022/03/23 05:57:45;;;;;;;;;;;;;;;;;;4980276;28;19917;-61
2022/03/23 06:00:11;;;;;;;;;;;;;;;;;;4983255;28;19957;-61
2022/03/23 06:02:41;;;;;;;;;;;;;;;;;;4985545;28;19928;-62
2022/03/23 06:05:09;;;;;;;;;;;;;;;;;;4984917;28;22165;-61
2022/03/23 06:07:39;;;;;;;;;;;;;;;;;;4984550;28;20096;-60
2022/03/23 06:10:07;;;;;;;;;;;;;;;;;;4967127;28;19947;-61
2022/03/23 06:12:32;;;;;;;;;;;;;;;;;;4983338;28;19917;-61
2022/03/23 06:15:00;;;;;;;;;;;;;;;;;;4984964;28;20551;-61
2022/03/23 06:17:28;;;;;;;;;;;;;;;;;;4987303;28;19925;-61
2022/03/23 06:19:53;;;;;;;;;;;;;;;;;;4984705;28;19951;-62
2022/03/23 06:22:19;;;;;;;;;;;;;;;;;;4969597;28;20353;-61
2022/03/23 06:24:45;;;;;;;;;;;;;;;;;;4984841;28;20387;-61
2022/03/23 06:27:10;;;;;;;;;;;;;;;;;;4987388;28;20505;-60
2022/03/23 06:29:43;;;;;;;;;;;;;;;;;;4985414;28;19917;-60
2022/03/23 06:32:08;;;;;;;;;;;;;;;;;;4969349;28;20626;-60
2022/03/23 06:34:33;;;;;;;;;;;;;;;;;;4985264;28;19918;-60
2022/03/23 06:37:01;;;;;;;;;;;;;;;;;;4967549;28;19924;-61
2022/03/23 06:39:31;;;;;;;;;;;;;;;;;;4982301;28;20510;-61
2022/03/23 06:41:57;;;;;;;;;;;;;;;;;;4986408;28;19964;-61
2022/03/23 06:44:23;;;;;;;;;;;;;;;;;;4984918;28;19920;-62
2022/03/23 06:46:50;;;;;;;;;;;;;;;;;;4987657;28;19926;-62
2022/03/23 06:49:18;;;;;;;;;;;;;;;;;;4987923;28;19948;-61
2022/03/23 06:51:43;;;;;;;;;;;;;;;;;;4987713;28;19943;-63
2022/03/23 06:54:08;;;;;;;;;;;;;;;;;;4983830;28;20238;-63
2022/03/23 06:56:38;;;;;;;;;;;;;;;;;;4969044;28;19921;-60
2022/03/23 06:59:04;;;;;;;;;;;;;;;;;;4984758;28;19952;-61
2022/03/23 07:01:29;;;;;;;;;;;;;;;;;;4985273;28;19960;-61
2022/03/23 07:03:55;;;;;;;;;;;;;;;;;;4986143;28;19991;-61
2022/03/23 07:06:22;;;;;;;;;;;;;;;;;;4986246;28;19917;-62
2022/03/23 07:11:35;;;;;;;;;;;;;;;;;;4985476;28;19975;-61
2022/03/23 07:14:00;;;;;;;;;;;;;;;;;;4983165;28;20746;-62
2022/03/23 07:16:28;;;;;;;;;;;;;;;;;;4985225;28;20471;-61
2022/03/23 07:18:54;;;;;;;;;;;;;;;;;;4987460;28;19917;-61
2022/03/23 07:21:19;;;;;;;;;;;;;;;;;;4985623;28;21946;-61
2022/03/23 07:23:44;;;;;;;;;;;;;;;;;;4988316;28;20365;-62
2022/03/23 07:26:10;;;;;;;;;;;;;;;;;;4986634;28;20621;-61
2022/03/23 07:28:36;;;;;;;;;;;;;;;;;;4982468;28;19921;-62
2022/03/23 07:31:03;;;;;;;;;;;;;;;;;;4985402;28;19921;-61
2022/03/23 07:33:31;;;;;;;;;;;;;;;;;;4985331;28;19948;-61
2022/03/23 07:35:59;;;;;;;;;;;;;;;;;;4984334;28;19925;-61
2022/03/23 07:38:24;;;;;;;;;;;;;;;;;;4983223;28;19924;-62
2022/03/23 07:40:49;;;;;;;;;;;;;;;;;;4987323;28;19913;-62
2022/03/23 07:43:17;;;;;;;;;;;;;;;;;;4965888;28;19917;-62
2022/03/23 07:45:42;;;;;;;;;;;;;;;;;;4984274;28;19926;-63
2022/03/23 07:48:11;;;;;;;;;;;;;;;;;;5000719;28;20028;-63
2022/03/23 07:50:36;;;;;;;;;;;;;;;;;;4983647;28;19932;-63
2022/03/23 07:53:01;;;;;;;;;;;;;;;;;;4986911;28;19922;-63
2022/03/23 07:55:27;;;;;;;;;;;;;;;;;;4985886;28;19983;-63
2022/03/23 07:57:52;;;;;;;;;;;;;;;;;;4984426;28;19918;-63
2022/03/23 08:00:21;;;;;;;;;;;;;;;;;;4982762;28;20447;-63
2022/03/23 08:02:47;;;;;;;;;;;;;;;;;;4983992;28;19925;-63
2022/03/23 08:05:14;;;;;;;;;;;;;;;;;;4986480;28;19917;-63
2022/03/23 08:07:40;;;;;;;;;;;;;;;;;;4983752;28;19947;-63
2022/03/23 08:10:05;;;;;;;;;;;;;;;;;;4984280;28;20034;-63
2022/03/23 08:12:31;;;;;;;;;;;;;;;;;;4986126;28;20403;-64
2022/03/23 08:14:57;;;;;;;;;;;;;;;;;;4983827;28;20427;-63
2022/03/23 08:17:22;;;;;;;;;;;;;;;;;;4984956;28;19999;-63
2022/03/23 08:20:32;;;;;;;;;;;;;;;;;;4966115;28;20004;-63
2022/03/23 08:22:38;;;;;;;;;;;;;;;;;;4985628;28;19917;-63
2022/03/23 08:25:03;;;;;;;;;;;;;;;;;;4984158;28;20650;-64
2022/03/23 08:27:31;;;;;;;;;;;;;;;;;;4979903;28;20028;-63
2022/03/23 08:29:59;;;;;;;;;;;;;;;;;;4980457;28;19925;-64
2022/03/23 08:32:26;;;;;;;;;;;;;;;;;;4965235;28;19924;-64
2022/03/23 08:34:53;;;;;;;;;;;;;;;;;;4962606;28;20416;-64
2022/03/23 08:37:18;;;;;;;;;;;;;;;;;;4980004;28;19956;-64
2022/03/23 08:39:44;;;;;;;;;;;;;;;;;;4982680;28;19917;-63
2022/03/23 08:42:09;;;;;;;;;;;;;;;;;;4982222;28;20009;-64
2022/03/23 08:44:41;;;;;;;;;;;;;;;;;;4981210;28;19924;-63
2022/03/23 08:47:09;;;;;;;;;;;;;;;;;;4980963;28;20525;-64
2022/03/23 08:49:35;;;;;;;;;;;;;;;;;;4982796;28;21933;-64
2022/03/23 08:52:00;;;;;;;;;;;;;;;;;;4976705;28;19914;-64
2022/03/23 08:54:28;;;;;;;;;;;;;;;;;;4982307;28;19917;-64
2022/03/23 08:56:54;;;;;;;;;;;;;;;;;;4984190;28;20480;-64
2022/03/23 08:59:19;;;;;;;;;;;;;;;;;;4983527;28;20008;-64
2022/03/23 09:01:45;;;;;;;;;;;;;;;;;;4980843;28;19917;-64
2022/03/23 09:04:16;;;;;;;;;;;;;;;;;;4979608;28;20269;-64
2022/03/23 09:06:41;;;;;;;;;;;;;;;;;;4983772;28;19941;-62
2022/03/23 09:09:06;;;;;;;;;;;;;;;;;;4978321;28;19914;-63
2022/03/23 09:11:32;;;;;;;;;;;;;;;;;;4983022;28;19928;-63
2022/03/23 09:13:58;;;;;;;;;;;;;;;;;;4985267;28;19913;-63
2022/03/23 09:16:24;;;;;;;;;;;;;;;;;;4982364;28;19925;-63
2022/03/23 09:18:49;;;;;;;;;;;;;;;;;;4981746;28;20361;-63
2022/03/23 09:21:17;;;;;;;;;;;;;;;;;;4985105;28;19917;-63
2022/03/23 09:23:43;;;;;;;;;;;;;;;;;;4983031;28;19924;-64
2022/03/23 09:26:10;;;;;;;;;;;;;;;;;;4981708;28;19917;-63
2022/03/23 09:28:35;;;;;;;;;;;;;;;;;;4981961;28;19972;-63
2022/03/23 09:31:03;;;;;;;;;;;;;;;;;;4982237;28;19959;-63
2022/03/23 09:33:28;;;;;;;;;;;;;;;;;;4979594;28;19921;-63
2022/03/23 09:35:54;;;;;;;;;;;;;;;;;;4980902;28;19925;-63
2022/03/23 09:38:22;;;;;;;;;;;;;;;;;;4984745;28;20092;-63
2022/03/23 09:40:50;;;;;;;;;;;;;;;;;;4985471;28;19929;-63
2022/03/23 09:43:21;;;;;;;;;;;;;;;;;;4984166;28;19924;-63
2022/03/23 09:45:46;;;;;;;;;;;;;;;;;;4986067;28;20914;-63
2022/03/23 09:48:12;;;;;;;;;;;;;;;;;;4969477;28;19917;-63
2022/03/23 09:50:39;;;;;;;;;;;;;;;;;;4988041;28;19925;-63
2022/03/23 09:53:04;;;;;;;;;;;;;;;;;;4987170;28;19924;-63
2022/03/23 09:55:31;;;;;;;;;;;;;;;;;;4986160;28;19917;-64
2022/03/23 09:57:56;;;;;;;;;;;;;;;;;;4985849;28;19921;-63
2022/03/23 10:00:21;;;;;;;;;;;;;;;;;;4981999;28;19932;-64
2022/03/23 10:02:47;;;;;;;;;;;;;;;;;;4984953;28;19922;-64
2022/03/23 10:05:14;;;;;;;;;;;;;;;;;;4967969;28;19921;-63
2022/03/23 10:07:40;;;;;;;;;;;;;;;;;;4987307;28;20027;-63
2022/03/23 10:10:06;;;;;;;;;;;;;;;;;;4984262;28;19913;-64
2022/03/23 10:12:31;;;;;;;;;;;;;;;;;;4985825;28;20420;-64
2022/03/23 10:14:59;;;;;;;;;;;;;;;;;;4983736;28;19917;-64
2022/03/23 10:17:26;;;;;;;;;;;;;;;;;;4985351;28;19963;-65
2022/03/23 10:19:52;;;;;;;;;;;;;;;;;;4981914;28;20292;-64
2022/03/23 10:22:17;;;;;;;;;;;;;;;;;;4986082;28;20841;-64
2022/03/23 10:24:43;;;;;;;;;;;;;;;;;;4987602;28;19921;-64
2022/03/23 10:27:11;;;;;;;;;;;;;;;;;;4986397;28;19929;-64
2022/03/23 10:29:36;;;;;;;;;;;;;;;;;;4985551;28;19920;-64
2022/03/23 10:32:01;;;;;;;;;;;;;;;;;;4982414;28;20443;-64
2022/03/23 10:34:27;;;;;;;;;;;;;;;;;;4984560;28;19917;-63
2022/03/23 10:36:57;;;;;;;;;;;;;;;;;;4985575;28;19929;-63
2022/03/23 10:39:23;;;;;;;;;;;;;;;;;;4984484;28;19940;-63
2022/03/23 10:41:48;;;;;;;;;;;;;;;;;;4985094;28;19921;-64
2022/03/23 10:44:13;;;;;;;;;;;;;;;;;;4984786;28;19993;-64
2022/03/23 10:46:41;;;;;;;;;;;;;;;;;;4983261;28;19920;-64
2022/03/23 10:49:06;;;;;;;;;;;;;;;;;;4966938;28;20296;-64
2022/03/23 10:51:32;;;;;;;;;;;;;;;;;;4984070;28;19917;-64
2022/03/23 10:53:57;;;;;;;;;;;;;;;;;;4987836;28;19957;-65
2022/03/23 10:56:23;;;;;;;;;;;;;;;;;;4981727;28;19921;-64
2022/03/23 10:58:48;;;;;;;;;;;;;;;;;;4985080;28;19932;-64
2022/03/23 11:01:16;;;;;;;;;;;;;;;;;;4981687;28;19917;-63
2022/03/23 11:03:42;;;;;;;;;;;;;;;;;;4997382;28;20161;-63
2022/03/23 11:06:07;;;;;;;;;;;;;;;;;;4983552;28;20381;-63
2022/03/23 11:08:33;;;;;;;;;;;;;;;;;;4985319;28;19913;-63
2022/03/23 11:16:37;;;;;;;;;;;;;;;;;;4983133;28;19925;-61
2022/03/23 11:19:03;;;;;;;;;;;;;;;;;;4967158;28;19925;-61
2022/03/23 11:21:30;;;;;;;;;;;;;;;;;;4981958;28;21201;-61
2022/03/23 11:23:56;;;;;;;;;;;;;;;;;;4983624;28;19917;-62
2022/03/23 11:26:21;;;;;;;;;;;;;;;;;;4982383;28;19988;-62
2022/03/23 11:28:52;;;;;;;;;;;;;;;;;;4966216;28;19909;-62
2022/03/23 11:31:20;;;;;;;;;;;;;;;;;;4965366;28;19917;-63
2022/03/23 11:33:48;;;;;;;;;;;;;;;;;;4983933;28;20313;-63
2022/03/23 11:36:14;;;;;;;;;;;;;;;;;;4982175;28;20006;-63
2022/03/23 11:38:41;;;;;;;;;;;;;;;;;;4983565;28;19917;-63
2022/03/23 11:41:06;;;;;;;;;;;;;;;;;;4986430;28;20066;-64
2022/03/23 11:43:37;;;;;;;;;;;;;;;;;;4983469;28;19922;-63
2022/03/23 11:46:04;;;;;;;;;;;;;;;;;;4983058;28;19925;-62
2022/03/23 11:48:30;;;;;;;;;;;;;;;;;;4982685;28;20881;-63
2022/03/23 11:50:58;;;;;;;;;;;;;;;;;;4985081;28;21364;-63
2022/03/23 11:53:26;;;;;;;;;;;;;;;;;;4984496;28;20718;-62
2022/03/23 11:55:53;;;;;;;;;;;;;;;;;;4984077;28;19928;-63
2022/03/23 11:58:21;;;;;;;;;;;;;;;;;;4983417;28;20049;-62
2022/03/23 12:00:50;;;;;;;;;;;;;;;;;;4981861;28;19937;-64
2022/03/23 12:03:17;;;;;;;;;;;;;;;;;;4966213;28;20722;-63
2022/03/23 12:05:43;;;;;;;;;;;;;;;;;;4981877;28;19917;-64
2022/03/23 12:08:10;;;;;;;;;;;;;;;;;;4981666;28;21087;-63
2022/03/23 12:10:36;;;;;;;;;;;;;;;;;;4982703;28;19917;-65
2022/03/23 12:13:01;;;;;;;;;;;;;;;;;;4998403;28;19917;-63
2022/03/23 12:15:30;;;;;;;;;;;;;;;;;;4982747;28;20947;-63
2022/03/23 12:17:56;;;;;;;;;;;;;;;;;;4978899;28;20052;-64
2022/03/23 12:20:25;;;;;;;;;;;;;;;;;;4980234;28;19966;-63
2022/03/23 12:22:53;;;;;;;;;;;;;;;;;;4978741;28;20252;-63
2022/03/23 12:26:05;;;;;;;;;;;;;;;;;;4976963;28;19951;-63
2022/03/23 12:28:20;;;;;;;;;;;;;;;;;;4977497;28;19951;-63
2022/03/23 12:30:48;;;;;;;;;;;;;;;;;;4979287;28;20601;-64
2022/03/23 12:33:13;;;;;;;;;;;;;;;;;;4976756;28;19928;-63
2022/03/23 12:35:38;;;;;;;;;;;;;;;;;;4958205;28;21712;-65
2022/03/23 12:38:06;;;;;;;;;;;;;;;;;;4984011;28;19957;-64
2022/03/23 12:40:34;;;;;;;;;;;;;;;;;;4981277;28;19918;-63
2022/03/23 12:42:59;;;;;;;;;;;;;;;;;;4982545;28;19918;-63
2022/03/23 12:45:28;;;;;;;;;;;;;;;;;;4980371;28;19917;-63
2022/03/23 12:47:55;;;;;;;;;;;;;;;;;;4978285;28;20003;-63
2022/03/23 12:57:49;;;;;;;;;;;;;;;;;;4980116;28;20035;-63
2022/03/23 12:58:41;;;;;;;;;;;;;;;;;;4976332;28;20056;-64
2022/03/23 13:01:07;;;;;;;;;;;;;;;;;;4974681;28;19959;-63
2022/03/23 13:03:36;;;;;;;;;;;;;;;;;;4976338;28;19917;-63
2022/03/23 13:06:04;;;;;;;;;;;;;;;;;;4980653;28;20008;-64
2022/03/23 13:08:33;;;;;;;;;;;;;;;;;;4985008;28;19995;-63
2022/03/23 13:11:00;;;;;;;;;;;;;;;;;;4985149;28;19920;-63
2022/03/23 13:13:38;;;;;;;;;;;;;;;;;;4984041;28;19957;-63
2022/03/23 13:16:03;;;;;;;;;;;;;;;;;;4983950;28;20016;-63
2022/03/23 13:18:28;;;;;;;;;;;;;;;;;;4986005;28;20572;-62
2022/03/23 13:20:56;;;;;;;;;;;;;;;;;;4987402;28;19968;-62
2022/03/23 13:23:21;;;;;;;;;;;;;;;;;;4987912;28;19918;-62
2022/03/23 13:25:50;;;;;;;;;;;;;;;;;;4987565;28;19918;-63
2022/03/23 13:28:15;;;;;;;;;;;;;;;;;;4985724;28;19960;-64
2022/03/23 13:30:43;;;;;;;;;;;;;;;;;;4986372;28;19922;-63
2022/03/23 13:33:10;;;;;;;;;;;;;;;;;;4988381;28;20007;-62
2022/03/23 13:35:36;;;;;;;;;;;;;;;;;;4971796;28;20416;-63
2022/03/23 13:38:03;;;;;;;;;;;;;;;;;;4986155;28;19932;-62
2022/03/23 13:40:28;;;;;;;;;;;;;;;;;;4970134;28;19959;-61
2022/03/23 13:45:37;;;;;;;;;;;;;;;;;;4986542;28;19917;-61
2022/03/23 13:48:04;;;;;;;;;;;;;;;;;;4969319;28;19924;-62
2022/03/23 13:50:29;;;;;;;;;;;;;;;;;;4986623;28;19968;-61
2022/03/23 13:52:57;;;;;;;;;;;;;;;;;;4985899;28;19925;-66
2022/03/23 13:55:23;;;;;;;;;;;;;;;;;;4984029;28;19914;-61
2022/03/23 13:57:48;;;;;;;;;;;;;;;;;;4988714;28;20490;-62
2022/03/23 14:00:18;;;;;;;;;;;;;;;;;;4984407;28;20009;-62
2022/03/23 14:02:43;;;;;;;;;;;;;;;;;;4985223;28;19921;-62
2022/03/23 14:05:09;;;;;;;;;;;;;;;;;;4985394;28;20034;-62
2022/03/23 14:07:34;;;;;;;;;;;;;;;;;;4969365;28;20249;-62
2022/03/23 14:10:04;;;;;;;;;;;;;;;;;;4984796;28;19917;-62
2022/03/23 14:12:32;;;;;;;;;;;;;;;;;;4986612;28;19921;-63
2022/03/23 14:14:57;;;;;;;;;;;;;;;;;;4983359;28;19964;-62
2022/03/23 14:17:27;;;;;;;;;;;;;;;;;;4987634;28;19925;-62
2022/03/23 14:19:52;;;;;;;;;;;;;;;;;;4984234;28;22100;-62
2022/03/23 14:22:22;;;;;;;;;;;;;;;;;;4986124;28;20011;-63
2022/03/23 14:24:50;;;;;;;;;;;;;;;;;;4968398;28;20509;-62
2022/03/23 14:27:15;;;;;;;;;;;;;;;;;;4986437;28;19925;-64
2022/03/23 14:29:42;;;;;;;;;;;;;;;;;;4986386;28;20588;-63
2022/03/23 14:32:07;;;;;;;;;;;;;;;;;;4986524;28;19928;-63
2022/03/23 14:34:37;;;;;;;;;;;;;;;;;;4985262;28;20008;-62
2022/03/23 14:37:05;;;;;;;;;;;;;;;;;;4968760;28;19921;-62
2022/03/23 14:39:30;;;;;;;;;;;;;;;;;;4984758;28;19917;-63
2022/03/23 14:41:58;;;;;;;;;;;;;;;;;;4987071;28;19966;-62
2022/03/23 14:44:28;;;;;;;;;;;;;;;;;;4985313;28;19923;-62
2022/03/23 14:46:53;;;;;;;;;;;;;;;;;;4987266;28;20645;-62
2022/03/23 14:49:22;;;;;;;;;;;;;;;;;;4985272;28;19913;-62
2022/03/23 14:51:48;;;;;;;;;;;;;;;;;;4984701;28;21826;-62
2022/03/23 14:54:20;;;;;;;;;;;;;;;;;;4986678;28;20381;-63
2022/03/23 14:56:48;;;;;;;;;;;;;;;;;;4985755;28;19925;-62
2022/03/23 14:59:13;;;;;;;;;;;;;;;;;;4983797;28;19944;-63
2022/03/23 15:01:38;;;;;;;;;;;;;;;;;;4981944;28;20820;-63
2022/03/23 15:04:08;;;;;;;;;;;;;;;;;;4981735;28;19969;-62
2022/03/23 15:14:49;;;;;;;;;;;;;;;;;;4985158;28;19921;-63
2022/03/23 15:17:14;;;;;;;;;;;;;;;;;;4987017;28;19940;-62
2022/03/23 15:19:42;;;;;;;;;;;;;;;;;;4983456;28;20162;-62
2022/03/23 15:22:07;;;;;;;;;;;;;;;;;;4986075;28;20012;-64
2022/03/23 15:24:35;;;;;;;;;;;;;;;;;;4999828;28;19918;-62
2022/03/23 15:27:00;;;;;;;;;;;;;;;;;;4985317;28;19909;-62
2022/03/23 15:29:26;;;;;;;;;;;;;;;;;;4984753;28;19913;-62
2022/03/23 15:31:51;;;;;;;;;;;;;;;;;;4986619;28;19928;-63
2022/03/23 15:34:16;;;;;;;;;;;;;;;;;;4983450;28;19956;-62
2022/03/23 15:36:44;;;;;;;;;;;;;;;;;;4984580;28;20016;-62
2022/03/23 15:39:10;;;;;;;;;;;;;;;;;;4985597;28;19920;-61
2022/03/23 15:41:35;;;;;;;;;;;;;;;;;;4984876;28;19920;-63
2022/03/23 15:44:09;;;;;;;;;;;;;;;;;;4983984;28;19917;-61
2022/03/23 15:46:38;;;;;;;;;;;;;;;;;;4983082;28;20036;-62
2022/03/23 15:49:04;;;;;;;;;;;;;;;;;;4985747;28;20081;-61
2022/03/23 15:51:29;;;;;;;;;;;;;;;;;;4984151;28;19921;-62
2022/03/23 15:53:55;;;;;;;;;;;;;;;;;;4985930;28;19920;-64
2022/03/23 15:56:20;;;;;;;;;;;;;;;;;;4982688;28;20347;-62
2022/03/23 15:58:45;;;;;;;;;;;;;;;;;;4986335;28;20024;-61
2022/03/23 16:01:13;;;;;;;;;;;;;;;;;;4984144;28;19947;-63
2022/03/23 16:03:38;;;;;;;;;;;;;;;;;;4983605;28;19960;-61
2022/03/23 16:06:04;;;;;;;;;;;;;;;;;;4986060;28;19992;-63
2022/03/23 16:08:31;;;;;;;;;;;;;;;;;;4982037;28;19913;-63
2022/03/23 16:10:59;;;;;;;;;;;;;;;;;;4985996;28;19917;-63
2022/03/23 16:13:27;;;;;;;;;;;;;;;;;;4997473;28;19917;-63
2022/03/23 16:15:53;;;;;;;;;;;;;;;;;;4984132;28;19984;-62
2022/03/23 16:18:18;;;;;;;;;;;;;;;;;;4983128;28;19917;-62
2022/03/23 16:20:46;;;;;;;;;;;;;;;;;;4982901;28;19909;-62
2022/03/23 16:23:11;;;;;;;;;;;;;;;;;;4983224;28;20024;-62
2022/03/23 16:25:39;;;;;;;;;;;;;;;;;;5000861;28;19917;-61
2022/03/23 16:28:04;;;;;;;;;;;;;;;;;;4982149;28;19963;-62
2022/03/23 16:30:29;;;;;;;;;;;;;;;;;;4981567;28;19928;-62
2022/03/23 16:32:58;;;;;;;;;;;;;;;;;;4985484;28;19948;-62
2022/03/23 16:35:23;;;;;;;;;;;;;;;;;;4982169;28;19928;-61
2022/03/23 16:37:49;;;;;;;;;;;;;;;;;;4985486;28;20889;-63
2022/03/23 16:40:15;;;;;;;;;;;;;;;;;;4983826;28;20498;-62
2022/03/23 16:42:41;;;;;;;;;;;;;;;;;;4986852;28;20013;-62
2022/03/23 16:45:06;;;;;;;;;;;;;;;;;;4981956;28;19925;-61
2022/03/23 16:47:34;;;;;;;;;;;;;;;;;;4985065;28;19918;-62
2022/03/23 16:49:59;;;;;;;;;;;;;;;;;;4966564;28;19913;-62
2022/03/23 16:52:27;;;;;;;;;;;;;;;;;;4982840;28;19921;-62
2022/03/23 16:54:52;;;;;;;;;;;;;;;;;;4964230;28;19924;-62
2022/03/23 16:57:18;;;;;;;;;;;;;;;;;;4982305;28;20012;-61
2022/03/23 16:59:44;;;;;;;;;;;;;;;;;;4983694;28;20028;-62
2022/03/23 17:02:09;;;;;;;;;;;;;;;;;;4984364;28;19918;-62
2022/03/23 17:12:49;;;;;;;;;;;;;;;;;;4984527;28;19921;-62
2022/03/23 17:15:18;;;;;;;;;;;;;;;;;;4982894;28;20000;-64
2022/03/23 17:17:44;;;;;;;;;;;;;;;;;;4985539;28;19921;-61
2022/03/23 17:20:09;;;;;;;;;;;;;;;;;;4984343;28;20028;-61
2022/03/23 17:22:40;;;;;;;;;;;;;;;;;;4983609;28;19917;-63